Time;durP1;ratioP1;P1;durP2;ratioP2;P2;SDS_P1;SDS_P2;PMS_P1;PMS_P2;Temp;Humidity;BMP_temperature;BMP_pressure;BME280_temperature;BME280_humidity;BME280_pressure;Samples;Min_cycle;Max_cycle;Signal;HPM_P1;HPM_P2
2023/05/24 00:00:39;;;;;;;4.70;3.75;;;13.20;99.90;;;;;;5035783;28;20116;-84
2023/05/24 00:03:05;;;;;;;4.97;3.83;;;13.20;99.90;;;;;;5033770;28;20080;-84
2023/05/24 00:05:31;;;;;;;5.78;3.83;;;13.20;99.90;;;;;;5033785;28;20104;-84
2023/05/24 00:07:58;;;;;;;5.65;3.72;;;13.20;99.90;;;;;;5031711;28;20029;-83
2023/05/24 00:10:23;;;;;;;6.30;3.55;;;13.20;99.90;;;;;;5032515;28;20028;-84
2023/05/24 00:12:49;;;;;;;5.00;3.90;;;13.20;99.90;;;;;;5039712;28;20036;-84
2023/05/24 00:15:15;;;;;;;5.13;3.78;;;13.10;99.90;;;;;;5040338;28;20120;-84
2023/05/24 00:17:41;;;;;;;4.45;3.63;;;13.10;99.90;;;;;;5040004;28;20393;-84
2023/05/24 00:20:10;;;;;;;4.28;3.67;;;13.20;99.90;;;;;;5038278;28;20041;-84
2023/05/24 00:22:37;;;;;;;4.82;4.10;;;13.20;99.90;;;;;;5039647;28;20036;-85
2023/05/24 00:25:03;;;;;;;5.65;4.00;;;13.20;99.90;;;;;;5040439;28;20036;-84
2023/05/24 00:27:29;;;;;;;5.80;3.90;;;13.20;99.90;;;;;;5041464;28;21291;-84
2023/05/24 00:29:55;;;;;;;4.22;3.75;;;13.20;99.90;;;;;;5042444;28;20039;-86
2023/05/24 00:32:21;;;;;;;5.07;3.85;;;13.20;99.90;;;;;;5041670;28;20064;-84
2023/05/24 00:34:46;;;;;;;6.60;4.15;;;13.20;99.90;;;;;;5042433;28;20041;-83
2023/05/24 00:37:12;;;;;;;4.75;3.67;;;13.20;99.90;;;;;;5040207;28;20032;-85
2023/05/24 00:39:38;;;;;;;5.10;4.35;;;13.20;99.90;;;;;;5043377;28;20095;-84
2023/05/24 00:42:04;;;;;;;5.07;3.92;;;13.20;99.90;;;;;;5040469;28;20033;-84
2023/05/24 00:44:30;;;;;;;5.20;4.13;;;13.10;99.90;;;;;;5038666;28;20045;-84
2023/05/24 00:46:56;;;;;;;4.57;3.97;;;13.10;99.90;;;;;;5037773;28;20116;-84
2023/05/24 00:49:22;;;;;;;4.75;3.55;;;13.10;99.90;;;;;;5037210;28;20237;-84
2023/05/24 00:51:48;;;;;;;4.78;3.90;;;13.10;99.90;;;;;;5039275;28;20033;-84
2023/05/24 00:54:14;;;;;;;8.63;4.75;;;13.10;99.90;;;;;;5039838;28;20068;-84
2023/05/24 00:56:41;;;;;;;5.03;4.53;;;13.10;99.90;;;;;;5041562;28;20063;-84
2023/05/24 00:59:07;;;;;;;7.70;4.68;;;13.10;99.90;;;;;;5039875;28;20041;-84
2023/05/24 01:01:34;;;;;;;5.63;4.50;;;13.10;99.90;;;;;;5036933;28;20035;-85
2023/05/24 01:03:59;;;;;;;6.55;4.50;;;13.10;99.90;;;;;;5039303;28;20049;-84
2023/05/24 01:06:26;;;;;;;5.10;4.30;;;13.10;99.90;;;;;;5038155;28;20084;-84
2023/05/24 01:09:15;;;;;;;7.72;4.55;;;13.10;99.90;;;;;;5037192;28;20086;-85
2023/05/24 01:12:05;;;;;;;5.65;4.63;;;13.10;99.90;;;;;;5029861;28;20041;-84
2023/05/24 01:14:40;;;;;;;4.93;4.40;;;13.00;99.90;;;;;;5040123;28;20056;-84
2023/05/24 01:17:09;;;;;;;5.68;4.28;;;13.00;99.90;;;;;;5039434;28;20025;-85
2023/05/24 01:19:47;;;;;;;5.45;4.57;;;13.00;99.90;;;;;;5035466;28;20033;-84
2023/05/24 01:22:36;;;;;;;4.68;4.10;;;13.00;99.90;;;;;;5039259;28;20060;-84
2023/05/24 01:25:06;;;;;;;5.55;4.00;;;13.00;99.90;;;;;;5039208;28;20057;-84
2023/05/24 01:27:33;;;;;;;6.82;4.78;;;13.00;99.90;;;;;;5037966;28;20210;-84
2023/05/24 01:29:59;;;;;;;5.80;4.30;;;13.00;99.90;;;;;;5040780;28;20096;-83
2023/05/24 01:32:26;;;;;;;4.57;4.18;;;13.00;99.90;;;;;;5035253;28;20028;-84
2023/05/24 01:34:51;;;;;;;6.18;4.30;;;13.00;99.90;;;;;;5038745;28;20040;-85
2023/05/24 01:37:17;;;;;;;6.88;4.75;;;13.00;99.90;;;;;;5036245;28;20037;-85
2023/05/24 01:39:42;;;;;;;6.38;4.85;;;13.00;99.90;;;;;;5039691;28;20033;-84
2023/05/24 01:42:28;;;;;;;5.38;4.47;;;12.90;99.90;;;;;;5039708;28;20048;-84
2023/05/24 01:44:56;;;;;;;;;;;12.90;99.90;;;;;;5039566;28;20071;-85
2023/05/24 01:47:45;;;;;;;6.85;4.90;;;12.90;99.90;;;;;;5034796;28;20399;-84
2023/05/24 01:50:33;;;;;;;5.35;4.68;;;12.90;99.90;;;;;;5039359;28;20033;-84
2023/05/24 01:53:03;;;;;;;5.30;4.50;;;12.80;99.90;;;;;;5039268;28;21050;-84
2023/05/24 01:55:31;;;;;;;6.57;4.70;;;12.80;99.90;;;;;;5039599;28;20417;-84
2023/05/24 01:58:01;;;;;;;5.20;4.70;;;12.80;99.90;;;;;;5037217;28;20041;-84
2023/05/24 02:00:28;;;;;;;6.53;4.63;;;12.80;99.90;;;;;;5037143;28;20033;-85
2023/05/24 02:02:55;;;;;;;8.40;5.00;;;12.80;99.90;;;;;;5067195;22;20052;-78
2023/05/24 02:05:20;;;;;;;6.43;4.45;;;12.80;99.90;;;;;;5036712;28;20116;-78
2023/05/24 02:07:46;;;;;;;5.47;4.70;;;12.80;99.90;;;;;;5037771;28;20049;-78
2023/05/24 02:10:11;;;;;;;5.32;4.60;;;12.70;99.90;;;;;;5040544;28;20227;-78
2023/05/24 02:12:37;;;;;;;6.57;4.80;;;12.80;99.90;;;;;;5037531;28;20033;-78
2023/05/24 02:15:03;;;;;;;5.32;4.50;;;12.70;99.90;;;;;;5038348;28;20056;-79
2023/05/24 02:17:31;;;;;;;5.55;4.95;;;12.80;99.90;;;;;;5034772;28;20437;-78
2023/05/24 02:20:00;;;;;;;5.53;4.90;;;12.80;99.90;;;;;;5024326;28;20028;-78
2023/05/24 02:22:26;;;;;;;6.53;4.35;;;12.80;99.90;;;;;;5023346;28;20458;-77
2023/05/24 02:24:52;;;;;;;5.30;4.20;;;12.70;99.90;;;;;;5023856;28;20112;-78
2023/05/24 02:27:18;;;;;;;5.25;4.75;;;12.80;99.90;;;;;;5023535;28;20034;-77
2023/05/24 02:29:43;;;;;;;6.22;5.00;;;12.70;99.90;;;;;;5023935;28;20478;-77
2023/05/24 02:32:09;;;;;;;5.07;4.47;;;12.70;99.90;;;;;;5023509;28;21385;-77
2023/05/24 02:34:34;;;;;;;5.70;4.40;;;12.70;99.90;;;;;;5022977;28;20405;-77
2023/05/24 02:37:01;;;;;;;6.25;4.90;;;12.70;99.90;;;;;;5022858;28;20490;-77
2023/05/24 02:39:26;;;;;;;6.13;5.53;;;12.70;99.90;;;;;;5022898;28;20048;-77
2023/05/24 02:41:52;;;;;;;7.93;5.18;;;12.70;99.90;;;;;;5023692;28;20026;-77
2023/05/24 02:44:17;;;;;;;5.68;5.05;;;12.70;99.90;;;;;;5021482;28;20053;-77
2023/05/24 02:46:43;;;;;;;6.40;5.00;;;12.60;99.90;;;;;;5022744;28;20041;-78
2023/05/24 02:49:09;;;;;;;6.28;5.30;;;12.60;99.90;;;;;;5023817;28;20039;-77
2023/05/24 02:51:35;;;;;;;7.05;5.22;;;12.60;99.90;;;;;;5023698;28;20034;-77
2023/05/24 02:54:02;;;;;;;5.65;4.82;;;12.60;99.90;;;;;;5022866;28;20033;-78
2023/05/24 02:56:28;;;;;;;6.55;5.72;;;12.60;99.90;;;;;;5022686;28;21449;-78
2023/05/24 02:58:54;;;;;;;9.05;5.60;;;12.60;99.90;;;;;;5023716;28;20033;-77
2023/05/24 03:01:20;;;;;;;7.03;5.65;;;12.60;99.90;;;;;;5024072;28;20033;-77
2023/05/24 03:03:46;;;;;;;6.68;5.75;;;12.60;99.90;;;;;;5022159;28;20067;-77
2023/05/24 03:06:12;;;;;;;6.57;5.60;;;12.50;99.90;;;;;;5023650;28;20049;-77
2023/05/24 03:08:39;;;;;;;7.57;6.10;;;12.50;99.90;;;;;;5022376;28;20500;-77
2023/05/24 03:11:04;;;;;;;7.18;5.78;;;12.50;99.90;;;;;;5023555;28;20025;-77
2023/05/24 03:13:30;;;;;;;7.65;6.30;;;12.50;99.90;;;;;;5022816;28;20460;-77
2023/05/24 03:15:56;;;;;;;7.07;6.20;;;12.50;99.90;;;;;;5023386;28;20116;-77
2023/05/24 03:18:24;;;;;;;7.97;5.90;;;12.40;99.90;;;;;;5024166;28;20029;-77
2023/05/24 03:20:50;;;;;;;7.32;5.75;;;12.40;99.90;;;;;;5026976;28;20572;-77
2023/05/24 03:23:16;;;;;;;12.43;6.90;;;12.40;99.90;;;;;;5025657;28;20168;-77
2023/05/24 03:25:41;;;;;;;7.13;6.32;;;12.40;99.90;;;;;;5027164;28;20109;-77
2023/05/24 03:28:07;;;;;;;10.68;5.78;;;12.40;99.90;;;;;;5026767;28;20500;-77
2023/05/24 03:30:33;;;;;;;7.85;6.63;;;12.40;99.90;;;;;;5027063;28;20024;-77
2023/05/24 03:32:58;;;;;;;8.50;7.18;;;12.40;99.90;;;;;;5025516;28;20075;-77
2023/05/24 03:35:24;;;;;;;8.25;6.50;;;12.40;99.90;;;;;;5025899;28;20087;-77
2023/05/24 03:37:50;;;;;;;10.85;8.05;;;12.40;99.90;;;;;;5025866;28;20040;-77
2023/05/24 03:40:15;;;;;;;13.02;8.00;;;12.40;99.90;;;;;;5026360;28;20128;-77
2023/05/24 03:42:41;;;;;;;10.07;7.35;;;12.30;99.90;;;;;;5026069;28;20037;-77
2023/05/24 03:45:07;;;;;;;9.32;7.40;;;12.30;99.90;;;;;;5025971;28;20438;-77
2023/05/24 03:47:32;;;;;;;10.10;7.88;;;12.30;99.90;;;;;;5026838;28;20092;-77
2023/05/24 03:49:58;;;;;;;9.05;7.07;;;12.20;99.90;;;;;;5028957;28;20120;-77
2023/05/24 03:52:24;;;;;;;8.25;6.72;;;12.20;99.90;;;;;;5027802;28;20029;-77
2023/05/24 03:54:49;;;;;;;9.40;7.45;;;12.10;99.90;;;;;;5027801;28;20025;-77
2023/05/24 03:57:16;;;;;;;9.05;6.90;;;12.10;99.90;;;;;;5026049;28;20037;-77
2023/05/24 03:59:41;;;;;;;9.48;6.93;;;12.10;99.90;;;;;;5025642;28;20029;-77
2023/05/24 04:02:07;;;;;;;10.52;7.15;;;12.10;99.90;;;;;;5026516;28;20820;-77
2023/05/24 04:04:32;;;;;;;9.93;7.05;;;12.10;99.90;;;;;;5026003;28;20036;-77
2023/05/24 04:06:58;;;;;;;9.32;7.32;;;12.00;99.90;;;;;;5025600;28;20026;-77
2023/05/24 04:09:24;;;;;;;11.10;7.40;;;12.00;99.90;;;;;;5025424;28;20639;-77
2023/05/24 04:11:50;;;;;;;10.70;7.70;;;12.00;99.90;;;;;;5023803;28;20034;-77
2023/05/24 04:14:15;;;;;;;10.00;7.07;;;12.00;99.90;;;;;;5026237;28;20466;-77
2023/05/24 04:16:43;;;;;;;11.27;8.10;;;11.90;99.90;;;;;;5026016;28;20041;-78
2023/05/24 04:19:09;;;;;;;11.38;7.60;;;11.90;99.90;;;;;;5025643;28;20032;-77
2023/05/24 04:21:36;;;;;;;13.15;7.18;;;11.90;99.90;;;;;;5025017;28;20029;-77
2023/05/24 04:24:02;;;;;;;11.48;6.88;;;11.90;99.90;;;;;;5025855;28;20461;-77
2023/05/24 04:26:28;;;;;;;8.48;6.40;;;11.80;99.90;;;;;;5025522;28;20052;-77
2023/05/24 04:28:54;;;;;;;12.27;6.25;;;11.80;99.90;;;;;;5025469;28;20036;-78
2023/05/24 04:31:20;;;;;;;9.90;6.78;;;11.80;99.90;;;;;;5024996;28;20034;-78
2023/05/24 04:33:46;;;;;;;9.40;5.93;;;11.80;99.90;;;;;;5025190;28;20036;-77
2023/05/24 04:36:12;;;;;;;8.68;6.00;;;11.70;99.90;;;;;;5024536;28;20025;-78
2023/05/24 04:38:38;;;;;;;8.32;5.72;;;11.70;99.90;;;;;;5024137;28;20397;-78
2023/05/24 04:41:05;;;;;;;9.60;5.82;;;11.70;99.90;;;;;;5025397;28;20029;-77
2023/05/24 04:43:32;;;;;;;9.90;5.93;;;11.70;99.90;;;;;;5024811;28;20104;-77
2023/05/24 04:45:58;;;;;;;9.57;5.68;;;11.70;99.90;;;;;;5025014;28;20508;-78
2023/05/24 04:48:24;;;;;;;9.80;5.90;;;11.70;99.90;;;;;;5023471;28;20037;-78
2023/05/24 04:50:51;;;;;;;10.93;6.32;;;11.80;99.90;;;;;;5025061;28;20117;-78
2023/05/24 04:53:17;;;;;;;10.75;6.60;;;11.80;99.90;;;;;;5025213;28;20102;-78
2023/05/24 04:55:46;;;;;;;8.98;5.47;;;11.80;99.90;;;;;;5021809;28;20033;-78
2023/05/24 04:58:11;;;;;;;7.75;5.30;;;11.80;99.90;;;;;;5021380;28;20041;-78
2023/05/24 05:00:37;;;;;;;11.20;5.70;;;11.90;99.90;;;;;;5021296;28;20025;-77
2023/05/24 05:03:03;;;;;;;13.27;6.30;;;11.90;99.90;;;;;;5021817;28;20037;-77
2023/05/24 05:05:28;;;;;;;7.20;5.45;;;11.90;99.90;;;;;;5022937;28;20030;-77
2023/05/24 05:07:54;;;;;;;10.10;5.82;;;11.90;99.90;;;;;;5022970;28;20080;-76
2023/05/24 05:10:19;;;;;;;9.50;6.22;;;11.80;99.90;;;;;;5016050;28;20029;-77
2023/05/24 05:12:45;;;;;;;7.88;5.50;;;11.80;99.90;;;;;;5014872;28;20037;-77
2023/05/24 05:15:12;;;;;;;9.02;6.53;;;11.80;99.90;;;;;;5016549;28;20112;-77
2023/05/24 05:17:37;;;;;;;9.13;6.57;;;11.80;99.90;;;;;;5013977;28;20030;-77
2023/05/24 05:20:04;;;;;;;8.98;6.57;;;11.80;99.90;;;;;;5013994;28;20068;-77
2023/05/24 05:22:30;;;;;;;11.15;6.47;;;11.80;99.90;;;;;;5014834;28;21039;-77
2023/05/24 05:24:55;;;;;;;10.77;6.50;;;11.80;99.90;;;;;;5016856;28;20051;-77
2023/05/24 05:27:21;;;;;;;8.70;6.38;;;11.80;99.90;;;;;;5015942;28;20033;-77
2023/05/24 05:29:47;;;;;;;9.80;6.55;;;11.80;99.90;;;;;;5011654;28;20040;-77
2023/05/24 05:32:12;;;;;;;7.85;5.88;;;11.90;99.90;;;;;;5012903;28;20094;-77
2023/05/24 05:34:38;;;;;;;9.00;6.72;;;12.00;99.90;;;;;;5013442;28;20037;-77
2023/05/24 05:37:04;;;;;;;10.07;6.28;;;12.00;99.90;;;;;;5012003;28;20545;-77
2023/05/24 05:39:30;;;;;;;11.60;6.20;;;12.10;99.90;;;;;;5011024;28;20044;-77
2023/05/24 05:41:56;;;;;;;9.73;6.55;;;12.20;99.90;;;;;;5013308;28;20041;-76
2023/05/24 05:44:21;;;;;;;11.85;6.93;;;12.20;99.90;;;;;;5011944;28;20076;-77
2023/05/24 05:46:47;;;;;;;9.63;6.35;;;12.30;99.90;;;;;;5013088;28;20037;-77
2023/05/24 05:49:14;;;;;;;10.68;6.93;;;12.20;99.90;;;;;;5010824;28;20096;-77
2023/05/24 05:51:40;;;;;;;10.77;6.63;;;12.30;99.90;;;;;;5014036;28;20029;-77
2023/05/24 05:54:13;;;;;;;9.15;6.63;;;12.30;99.90;;;;;;5013410;28;20044;-77
2023/05/24 05:56:44;;;;;;;10.48;7.22;;;12.30;99.90;;;;;;5012343;28;20129;-77
2023/05/24 05:59:13;;;;;;;10.48;6.68;;;12.40;99.90;;;;;;5011663;28;20049;-77
2023/05/24 06:01:40;;;;;;;10.13;7.40;;;12.40;99.90;;;;;;5011920;28;20108;-77
2023/05/24 06:04:05;;;;;;;9.65;6.47;;;12.50;99.90;;;;;;5013555;28;20045;-77
2023/05/24 06:06:32;;;;;;;9.60;6.65;;;12.50;99.90;;;;;;5013513;28;20029;-77
2023/05/24 06:08:58;;;;;;;11.13;6.97;;;12.50;99.90;;;;;;5012113;28;20116;-77
2023/05/24 06:11:26;;;;;;;11.13;6.53;;;12.50;99.90;;;;;;5013451;28;20029;-77
2023/05/24 06:13:52;;;;;;;10.20;7.00;;;12.50;99.90;;;;;;5016388;28;20110;-77
2023/05/24 06:16:18;;;;;;;9.65;7.07;;;12.60;99.90;;;;;;5013534;28;20521;-77
2023/05/24 06:18:44;;;;;;;10.35;7.53;;;12.60;99.90;;;;;;5009601;28;20035;-77
2023/05/24 06:21:10;;;;;;;12.35;7.20;;;12.70;99.90;;;;;;5014293;28;20029;-78
2023/05/24 06:23:36;;;;;;;11.77;7.75;;;12.80;99.90;;;;;;5012658;28;20670;-77
2023/05/24 06:26:02;;;;;;;13.77;8.55;;;12.80;99.90;;;;;;5014471;28;20033;-77
2023/05/24 06:28:28;;;;;;;12.48;7.40;;;12.90;99.90;;;;;;5012121;28;20029;-77
2023/05/24 06:30:53;;;;;;;10.98;7.72;;;13.00;99.90;;;;;;5013218;28;20609;-77
2023/05/24 06:33:19;;;;;;;12.95;6.28;;;13.20;99.90;;;;;;5012923;28;20725;-77
2023/05/24 06:35:45;;;;;;;12.48;7.13;;;13.40;99.90;;;;;;5011997;28;20046;-78
2023/05/24 06:38:11;;;;;;;9.05;6.80;;;13.50;99.90;;;;;;5012193;28;20037;-78
2023/05/24 06:40:36;;;;;;;11.35;7.50;;;13.50;99.90;;;;;;5015315;28;20041;-78
2023/05/24 06:43:03;;;;;;;9.90;6.93;;;13.50;99.90;;;;;;5014637;28;21917;-78
2023/05/24 06:45:28;;;;;;;9.38;6.60;;;13.50;99.90;;;;;;5012863;28;21162;-78
2023/05/24 06:47:54;;;;;;;10.05;7.28;;;13.50;99.90;;;;;;5010866;28;20077;-78
2023/05/24 06:50:19;;;;;;;7.65;6.22;;;13.60;99.90;;;;;;5013994;28;20036;-78
2023/05/24 06:52:45;;;;;;;13.23;8.63;;;13.70;99.90;;;;;;5016158;28;20072;-77
2023/05/24 06:55:10;;;;;;;11.13;8.00;;;13.70;99.90;;;;;;5015398;28;20057;-77
2023/05/24 06:57:36;;;;;;;9.35;7.15;;;13.80;99.90;;;;;;5015969;28;20029;-78
2023/05/24 07:00:04;;;;;;;10.48;7.70;;;13.90;99.90;;;;;;5014422;28;20749;-78
2023/05/24 07:02:30;;;;;;;11.73;7.43;;;14.00;99.90;;;;;;5017362;28;20041;-79
2023/05/24 07:04:55;;;;;;;9.68;7.55;;;14.10;99.90;;;;;;5018274;28;20053;-79
2023/05/24 07:07:21;;;;;;;10.23;8.07;;;14.10;99.90;;;;;;5019675;28;20099;-76
2023/05/24 07:09:47;;;;;;;11.45;8.30;;;14.30;99.90;;;;;;5014649;28;20042;-78
2023/05/24 07:12:12;;;;;;;10.10;7.88;;;14.20;99.90;;;;;;5016546;28;20060;-78
2023/05/24 07:14:38;;;;;;;10.63;8.23;;;14.20;99.90;;;;;;5015791;28;20061;-78
2023/05/24 07:17:03;;;;;;;14.50;9.65;;;14.20;99.90;;;;;;5014870;28;20071;-78
2023/05/24 07:19:29;;;;;;;10.90;9.20;;;14.20;99.90;;;;;;5015788;28;20057;-77
2023/05/24 07:21:55;;;;;;;16.02;9.25;;;14.30;99.90;;;;;;5014553;28;20112;-77
2023/05/24 07:24:22;;;;;;;10.85;8.32;;;14.20;99.90;;;;;;5021369;28;20037;-79
2023/05/24 07:26:49;;;;;;;11.77;9.07;;;14.20;99.90;;;;;;5027365;28;20115;-80
2023/05/24 07:29:15;;;;;;;12.27;9.55;;;14.30;99.90;;;;;;5026876;28;20366;-78
2023/05/24 07:31:41;;;;;;;13.88;11.05;;;14.30;99.90;;;;;;5026643;28;20032;-79
2023/05/24 07:34:06;;;;;;;10.07;8.82;;;14.30;99.90;;;;;;5026123;28;20539;-79
2023/05/24 07:36:32;;;;;;;11.63;10.15;;;14.30;99.90;;;;;;5027776;28;20033;-77
2023/05/24 07:38:59;;;;;;;12.25;10.70;;;14.30;99.90;;;;;;5025618;28;20029;-76
2023/05/24 07:41:26;;;;;;;12.82;10.85;;;14.40;99.90;;;;;;5024603;28;20172;-77
2023/05/24 07:43:53;;;;;;;15.60;11.30;;;14.40;99.90;;;;;;5023565;28;21340;-77
2023/05/24 07:46:19;;;;;;;14.15;10.93;;;14.40;99.90;;;;;;5024653;28;20029;-77
2023/05/24 07:48:44;;;;;;;10.55;9.43;;;14.40;99.90;;;;;;5022232;28;20056;-78
2023/05/24 07:51:11;;;;;;;13.15;9.80;;;14.50;99.90;;;;;;5026516;28;20113;-78
2023/05/24 07:53:36;;;;;;;13.85;10.23;;;14.50;99.90;;;;;;5027527;28;20025;-78
2023/05/24 07:56:02;;;;;;;12.18;9.70;;;14.60;99.90;;;;;;5029840;28;20022;-78
2023/05/24 07:58:28;;;;;;;13.30;10.30;;;14.80;99.90;;;;;;5028073;28;20017;-79
2023/05/24 08:00:54;;;;;;;10.85;9.75;;;14.80;99.90;;;;;;5029330;28;20033;-78
2023/05/24 08:03:19;;;;;;;12.23;9.98;;;14.90;99.90;;;;;;5048433;22;20053;-85
2023/05/24 08:05:45;;;;;;;11.15;9.98;;;14.90;99.90;;;;;;5019957;28;20167;-85
2023/05/24 08:08:10;;;;;;;11.85;9.60;;;14.90;99.90;;;;;;5019981;28;20033;-83
2023/05/24 08:10:36;;;;;;;13.02;9.95;;;15.00;99.90;;;;;;5018824;28;20773;-84
2023/05/24 08:13:02;;;;;;;11.20;9.43;;;15.00;99.90;;;;;;5019444;28;20517;-83
2023/05/24 08:15:27;;;;;;;12.15;9.73;;;14.90;99.90;;;;;;5021260;28;20067;-84
2023/05/24 08:17:53;;;;;;;13.88;9.20;;;14.80;99.90;;;;;;5022521;28;20045;-85
2023/05/24 08:20:19;;;;;;;10.13;9.13;;;14.70;99.90;;;;;;5038379;28;20032;-86
2023/05/24 08:22:47;;;;;;;9.77;8.70;;;14.60;99.90;;;;;;5039304;28;20087;-85
2023/05/24 08:25:12;;;;;;;12.18;9.52;;;14.40;99.90;;;;;;5036241;28;20044;-85
2023/05/24 08:27:38;;;;;;;10.75;8.95;;;14.30;99.90;;;;;;5034061;28;20037;-85
2023/05/24 08:30:05;;;;;;;11.23;9.18;;;14.20;99.90;;;;;;5038615;28;20041;-86
2023/05/24 08:32:31;;;;;;;9.95;8.45;;;14.10;99.90;;;;;;5034376;28;20851;-82
2023/05/24 08:34:57;;;;;;;11.65;8.45;;;14.10;99.90;;;;;;5027589;28;20073;-82
2023/05/24 08:37:23;;;;;;;10.15;8.23;;;14.00;99.90;;;;;;5028137;28;20127;-82
2023/05/24 08:39:48;;;;;;;14.05;7.40;;;13.90;99.90;;;;;;5008791;28;20033;-82
2023/05/24 08:42:15;;;;;;;14.40;7.75;;;14.00;99.90;;;;;;5028166;28;20052;-82
2023/05/24 08:44:52;;;;;;;13.77;8.25;;;13.90;99.90;;;;;;5028798;28;20048;-82
2023/05/24 08:47:20;;;;;;;9.02;6.93;;;14.00;99.90;;;;;;5027463;28;20060;-82
2023/05/24 08:49:47;;;;;;;12.18;7.47;;;14.10;99.90;;;;;;5026916;28;20090;-82
2023/05/24 08:52:13;;;;;;;9.15;6.65;;;14.20;99.90;;;;;;5026529;28;20030;-83
2023/05/24 08:54:40;;;;;;;9.20;6.68;;;14.30;99.90;;;;;;5026264;28;20080;-83
2023/05/24 08:57:06;;;;;;;16.23;7.70;;;14.50;99.90;;;;;;5026382;28;20037;-82
2023/05/24 08:59:32;;;;;;;10.50;6.60;;;14.60;99.90;;;;;;5026249;28;20041;-83
2023/05/24 09:01:59;;;;;;;13.00;8.18;;;14.80;99.90;;;;;;5027520;28;20038;-82
2023/05/24 09:04:27;;;;;;;11.60;7.78;;;14.90;99.90;;;;;;5028517;28;20553;-83
2023/05/24 09:06:53;;;;;;;11.18;7.35;;;14.90;99.90;;;;;;5027898;28;20452;-82
2023/05/24 09:09:20;;;;;;;11.13;7.82;;;15.00;99.90;;;;;;5027827;28;20208;-82
2023/05/24 09:11:48;;;;;;;12.98;7.35;;;15.00;99.90;;;;;;5031122;28;20029;-83
2023/05/24 09:14:14;;;;;;;13.85;7.13;;;15.10;99.90;;;;;;5035607;28;20129;-86
2023/05/24 09:16:41;;;;;;;11.27;7.45;;;15.20;99.90;;;;;;5037723;28;20112;-86
2023/05/24 09:19:06;;;;;;;10.57;6.75;;;15.20;99.90;;;;;;5037334;28;20052;-85
2023/05/24 09:21:32;;;;;;;8.57;6.72;;;15.30;99.90;;;;;;5041933;28;20072;-86
2023/05/24 09:23:58;;;;;;;9.20;6.32;;;15.30;99.90;;;;;;5041430;28;20421;-87
2023/05/24 09:26:27;;;;;;;24.70;7.35;;;15.30;99.90;;;;;;5041224;28;20116;-88
2023/05/24 09:28:56;;;;;;;10.60;7.50;;;15.30;99.90;;;;;;5033478;28;20025;-85
2023/05/24 09:31:32;;;;;;;11.40;6.28;;;15.30;99.90;;;;;;5034340;28;20034;-85
2023/05/24 09:33:57;;;;;;;8.40;5.72;;;15.20;99.90;;;;;;5034782;28;20060;-85
2023/05/24 09:36:23;;;;;;;11.10;5.88;;;15.10;99.90;;;;;;5039504;28;20056;-86
2023/05/24 09:39:01;;;;;;;9.20;6.30;;;15.00;99.90;;;;;;5036136;28;20025;-88
2023/05/24 09:41:27;;;;;;;12.93;6.68;;;14.90;99.90;;;;;;5029730;28;21041;-82
2023/05/24 09:43:52;;;;;;;13.43;5.65;;;14.80;99.90;;;;;;5026035;28;20038;-83
2023/05/24 09:46:20;;;;;;;11.35;6.25;;;14.70;99.90;;;;;;5026475;28;20124;-82
2023/05/24 09:48:56;;;;;;;10.68;6.03;;;14.60;99.90;;;;;;5023751;28;20113;-83
2023/05/24 09:51:22;;;;;;;12.23;6.47;;;14.60;99.90;;;;;;5026940;28;20094;-82
2023/05/24 09:53:51;;;;;;;10.98;6.15;;;14.50;99.90;;;;;;5028064;28;20716;-86
2023/05/24 09:56:17;;;;;;;12.93;6.13;;;14.50;99.90;;;;;;5036420;28;20033;-86
2023/05/24 09:58:44;;;;;;;11.38;6.40;;;14.50;99.90;;;;;;5036445;28;20408;-86
2023/05/24 10:01:11;;;;;;;11.65;6.80;;;14.40;99.90;;;;;;5036604;28;20492;-86
2023/05/24 10:03:36;;;;;;;10.13;6.13;;;14.40;99.90;;;;;;5034613;28;20065;-85
2023/05/24 10:06:06;;;;;;;14.50;5.82;;;14.40;99.90;;;;;;5034506;28;20034;-88
2023/05/24 10:08:34;;;;;;;13.48;5.78;;;14.50;99.90;;;;;;5037126;28;20029;-86
2023/05/24 10:11:03;;;;;;;11.32;5.88;;;14.50;99.90;;;;;;5039700;28;20093;-87
2023/05/24 10:13:29;;;;;;;9.77;4.88;;;14.50;99.90;;;;;;5038646;28;20029;-86
2023/05/24 10:15:54;;;;;;;11.80;5.32;;;14.50;99.90;;;;;;5037145;28;20059;-85
2023/05/24 10:18:20;;;;;;;9.98;5.38;;;14.50;99.90;;;;;;5032438;28;20049;-86
2023/05/24 10:20:47;;;;;;;12.63;6.30;;;14.50;99.90;;;;;;5035877;28;20033;-85
2023/05/24 10:23:19;;;;;;;10.10;5.50;;;14.50;99.90;;;;;;5035502;28;20044;-89
2023/05/24 10:25:57;;;;;;;9.57;5.68;;;14.60;99.90;;;;;;5034254;28;20032;-87
2023/05/24 10:28:24;;;;;;;12.02;6.28;;;14.50;99.90;;;;;;5035870;22;20058;-85
2023/05/24 10:31:04;;;;;;;12.77;6.30;;;14.50;99.90;;;;;;4990952;28;20034;-85
2023/05/24 10:33:33;;;;;;;15.00;6.20;;;14.40;99.90;;;;;;4990852;28;20125;-84
2023/05/24 10:35:59;;;;;;;14.57;6.28;;;14.40;99.90;;;;;;4991165;28;20050;-85
2023/05/24 10:38:25;;;;;;;13.25;6.57;;;14.50;99.90;;;;;;5007177;28;20111;-85
2023/05/24 10:40:51;;;;;;;11.13;5.57;;;14.60;99.90;;;;;;5010270;28;20033;-84
2023/05/24 10:43:17;;;;;;;12.98;5.95;;;14.70;99.90;;;;;;5012883;28;20045;-83
2023/05/24 10:45:47;;;;;;;11.32;5.90;;;14.80;99.90;;;;;;5012270;28;21431;-84
2023/05/24 10:48:13;;;;;;;12.98;6.05;;;14.80;99.90;;;;;;5009894;28;20048;-83
2023/05/24 10:50:39;;;;;;;13.20;6.40;;;14.80;99.90;;;;;;5011058;28;20585;-83
2023/05/24 10:53:15;;;;;;;10.35;6.43;;;14.90;99.90;;;;;;5011610;28;20064;-84
2023/05/24 10:55:58;;;;;;;10.40;6.25;;;14.90;99.90;;;;;;5010994;28;20088;-82
2023/05/24 10:58:32;;;;;;;12.35;5.57;;;14.80;99.90;;;;;;5009731;28;20022;-83
2023/05/24 11:00:58;;;;;;;14.97;6.53;;;14.90;99.90;;;;;;5008886;28;20033;-83
2023/05/24 11:03:24;;;;;;;12.95;6.47;;;14.90;99.90;;;;;;5009114;28;20413;-84
2023/05/24 11:05:53;;;;;;;10.02;6.18;;;14.90;99.90;;;;;;5008668;28;20034;-84
2023/05/24 11:08:29;;;;;;;18.65;7.10;;;15.00;99.90;;;;;;5009108;28;20060;-84
2023/05/24 11:11:11;;;;;;;14.77;7.32;;;14.90;99.90;;;;;;5009993;28;20044;-83
2023/05/24 11:13:38;;;;;;;13.38;7.68;;;14.80;99.90;;;;;;5007266;28;20112;-83
2023/05/24 11:16:04;;;;;;;16.52;7.68;;;14.80;99.90;;;;;;5009126;28;20224;-83
2023/05/24 11:18:31;;;;;;;16.65;7.78;;;14.70;99.90;;;;;;5008662;28;20029;-83
2023/05/24 11:21:00;;;;;;;13.65;7.38;;;14.70;99.90;;;;;;5007898;28;20029;-83
2023/05/24 11:23:26;;;;;;;9.68;6.63;;;14.60;99.90;;;;;;5009872;28;20125;-84
2023/05/24 11:25:52;;;;;;;12.30;6.65;;;14.60;99.90;;;;;;5011559;28;20041;-84
2023/05/24 11:28:18;;;;;;;11.77;6.28;;;14.70;99.90;;;;;;5009466;28;20038;-84
2023/05/24 11:30:46;;;;;;;14.52;6.93;;;14.70;99.90;;;;;;5009597;28;20105;-82
2023/05/24 11:33:18;;;;;;;15.82;7.68;;;14.70;99.90;;;;;;5007748;28;20037;-82
2023/05/24 11:35:49;;;;;;;17.83;8.18;;;14.70;99.90;;;;;;5010788;28;20081;-82
2023/05/24 11:38:16;;;;;;;11.98;6.80;;;14.70;99.90;;;;;;5007278;28;20466;-82
2023/05/24 11:40:43;;;;;;;13.70;7.13;;;14.70;99.90;;;;;;5009918;28;20037;-84
2023/05/24 11:43:13;;;;;;;14.90;7.47;;;14.80;99.90;;;;;;5009171;28;20608;-84
2023/05/24 11:45:43;;;;;;;14.20;7.28;;;14.80;99.90;;;;;;5009252;28;20029;-84
2023/05/24 11:48:10;;;;;;;16.35;7.25;;;14.80;99.90;;;;;;5009949;28;20076;-84
2023/05/24 11:50:40;;;;;;;14.50;6.85;;;14.70;99.90;;;;;;5005249;28;20034;-84
2023/05/24 11:53:08;;;;;;;14.00;7.07;;;14.80;99.90;;;;;;5006896;28;20035;-83
2023/05/24 11:55:35;;;;;;;15.13;6.75;;;14.80;99.90;;;;;;5007754;28;20144;-84
2023/05/24 11:58:04;;;;;;;13.30;7.03;;;14.80;99.90;;;;;;5008242;28;20060;-83
2023/05/24 12:00:30;;;;;;;12.80;6.07;;;14.80;99.90;;;;;;5007619;28;20060;-83
2023/05/24 12:03:00;;;;;;;10.50;5.82;;;14.80;99.90;;;;;;5005433;28;20121;-84
2023/05/24 12:05:30;;;;;;;13.57;6.20;;;14.80;99.90;;;;;;5005295;28;20065;-83
2023/05/24 12:08:06;;;;;;;13.40;6.55;;;14.90;99.90;;;;;;5006160;28;20026;-84
2023/05/24 12:10:34;;;;;;;10.13;5.90;;;14.90;99.90;;;;;;5007187;28;20033;-83
2023/05/24 12:13:00;;;;;;;15.02;6.03;;;15.00;99.90;;;;;;5004781;28;20094;-83
2023/05/24 12:15:25;;;;;;;11.60;5.40;;;14.90;99.90;;;;;;5005048;28;21426;-84
2023/05/24 12:17:52;;;;;;;15.13;6.53;;;14.80;99.90;;;;;;5006282;28;20038;-86
2023/05/24 12:20:19;;;;;;;10.88;5.35;;;14.80;99.90;;;;;;5009373;28;20104;-80
2023/05/24 12:22:51;;;;;;;12.35;5.13;;;14.80;99.90;;;;;;5013513;28;20489;-75
2023/05/24 12:25:20;;;;;;;14.98;5.57;;;14.80;99.90;;;;;;5007076;28;20045;-80
2023/05/24 12:27:47;;;;;;;11.50;5.70;;;14.80;99.90;;;;;;5007477;28;20065;-80
2023/05/24 12:30:19;;;;;;;9.65;5.10;;;14.80;99.90;;;;;;5004310;28;20064;-80
2023/05/24 12:32:45;;;;;;;13.60;5.53;;;14.90;99.90;;;;;;5005649;28;20029;-80
2023/05/24 12:35:11;;;;;;;10.45;5.00;;;15.00;99.90;;;;;;5004648;28;20041;-80
2023/05/24 12:37:38;;;;;;;14.35;5.85;;;15.20;99.90;;;;;;5001340;28;20111;-80
2023/05/24 12:40:20;;;;;;;12.55;5.40;;;15.10;99.90;;;;;;5000770;28;20536;-80